createdAt,value
2022-08-17T00:02:25.544Z,94345.91
2022-08-17T00:04:53.674Z,94340.50
2022-08-17T00:07:20.513Z,94346.03
2022-08-17T00:09:47.447Z,94346.03
2022-08-17T00:12:40.469Z,94342.72
2022-08-17T00:15:01.615Z,94339.53
2022-08-17T00:17:28.618Z,94340.63
2022-08-17T00:19:55.446Z,94341.72
2022-08-17T00:22:31.423Z,94339.41
2022-08-17T00:25:03.138Z,94337.03
2022-08-17T00:27:30.174Z,94344.09
2022-08-17T00:29:56.963Z,94345.63
2022-08-17T00:33:12.685Z,94330.06
2022-08-17T00:35:11.784Z,94331.63
2022-08-17T00:37:39.006Z,94326.16
2022-08-17T00:40:06.400Z,94328.06
2022-08-17T00:42:33.530Z,94324.91
2022-08-17T00:45:00.399Z,94324.09
2022-08-17T00:47:27.336Z,94322.09
2022-08-17T00:49:54.274Z,94318.84
2022-08-17T00:52:23.236Z,94317.25
2022-08-17T00:54:52.428Z,94318.03
2022-08-17T00:57:21.484Z,94320.03
2022-08-17T01:00:02.130Z,94320.84
2022-08-17T01:02:34.225Z,94321.28
2022-08-17T01:05:08.266Z,94318.13
2022-08-17T01:07:35.131Z,94325.88
2022-08-17T01:10:07.502Z,94327.50
2022-08-17T01:12:54.561Z,94320.53
2022-08-17T01:15:21.439Z,94329.13
2022-08-17T01:17:48.466Z,94337.34
2022-08-17T01:20:17.079Z,94336.97
2022-08-17T01:22:43.935Z,94327.44
2022-08-17T01:25:11.680Z,94336.69
2022-08-17T01:27:39.006Z,94338.19
2022-08-17T01:30:58.042Z,94332.72
2022-08-17T01:32:54.642Z,94329.25
2022-08-17T01:35:21.610Z,94317.91
2022-08-17T01:37:48.418Z,94324.94
2022-08-17T01:40:21.721Z,94333.47
2022-08-17T01:43:08.798Z,94322.41
2022-08-17T01:45:39.339Z,94320.84
2022-08-17T01:48:06.144Z,94320.78
2022-08-17T01:50:35.407Z,94312.91
2022-08-17T01:53:04.302Z,94321.91
2022-08-17T01:55:33.957Z,94326.94
2022-08-17T01:58:00.892Z,94324.56
2022-08-17T02:00:46.769Z,94329.31
2022-08-17T02:03:17.367Z,94326.19
2022-08-17T02:05:44.695Z,94332.50
2022-08-17T02:08:19.903Z,94320.78
2022-08-17T02:10:47.958Z,94328.00
2022-08-17T02:13:15.271Z,94331.72
2022-08-17T02:15:42.393Z,94332.31
2022-08-17T02:18:10.453Z,94332.19
2022-08-17T02:20:41.386Z,94330.63
2022-08-17T02:23:09.647Z,94332.50
2022-08-17T02:25:36.840Z,94333.16
2022-08-17T02:28:04.843Z,94328.50
2022-08-17T02:31:02.202Z,94327.78
2022-08-17T02:33:18.718Z,94326.63
2022-08-17T02:35:47.251Z,94325.47
2022-08-17T02:38:14.126Z,94327.41
2022-08-17T02:40:41.172Z,94329.16
2022-08-17T02:43:08.701Z,94340.16
2022-08-17T02:45:35.814Z,94335.69
2022-08-17T02:48:02.986Z,94341.34
2022-08-17T02:50:29.864Z,94341.59
2022-08-17T02:53:02.393Z,94329.91
2022-08-17T02:55:35.288Z,94338.06
2022-08-17T02:58:03.835Z,94332.19
2022-08-17T03:00:34.264Z,94337.66
2022-08-17T03:03:01.426Z,94341.59
2022-08-17T03:05:29.522Z,94343.66
2022-08-17T03:07:56.880Z,94344.13
2022-08-17T03:10:24.823Z,94350.47
2022-08-17T03:12:52.823Z,94357.13
2022-08-17T03:15:24.417Z,94361.31
2022-08-17T03:17:52.160Z,94364.31
2022-08-17T03:20:19.527Z,94358.44
2022-08-17T03:22:53.454Z,94358.72
2022-08-17T03:25:28.296Z,94367.34
2022-08-17T03:27:55.970Z,94353.28
2022-08-17T03:30:23.303Z,94362.72
2022-08-17T03:32:51.186Z,94361.66
2022-08-17T03:35:19.994Z,94353.56
2022-08-17T03:37:47.262Z,94352.41
2022-08-17T03:40:55.906Z,94355.03
2022-08-17T03:43:10.996Z,94363.94
2022-08-17T03:45:56.882Z,94360.06
2022-08-17T03:48:42.563Z,94358.22
2022-08-17T03:51:33.469Z,94360.16
2022-08-17T03:54:18.801Z,94365.88
2022-08-17T03:56:48.946Z,94370.34
2022-08-17T03:59:21.247Z,94372.66
2022-08-17T04:01:50.991Z,94371.88
2022-08-17T04:04:20.433Z,94375.81
2022-08-17T04:06:54.881Z,94377.38
2022-08-17T04:09:21.836Z,94367.63
2022-08-17T04:11:48.744Z,94377.75
2022-08-17T04:14:15.636Z,94372.00
2022-08-17T04:16:42.442Z,94382.97
2022-08-17T04:19:09.342Z,94386.63
2022-08-17T04:21:36.112Z,94388.72
2022-08-17T04:24:03.479Z,94401.63
2022-08-17T04:26:53.947Z,94398.66
2022-08-17T04:29:17.635Z,94401.13
2022-08-17T04:31:44.472Z,94403.91
2022-08-17T04:34:12.186Z,94405.47
2022-08-17T04:36:39.113Z,94405.53
2022-08-17T04:39:05.960Z,94407.13
2022-08-17T04:41:51.350Z,94410.19
2022-08-17T04:44:37.185Z,94411.06
2022-08-17T04:47:05.190Z,94406.19
2022-08-17T04:49:32.672Z,94413.31
2022-08-17T04:52:04.369Z,94415.53
2022-08-17T04:54:31.745Z,94418.03
2022-08-17T04:56:58.627Z,94418.88
2022-08-17T04:59:25.627Z,94419.03
2022-08-17T05:01:52.481Z,94419.97
2022-08-17T05:04:33.879Z,94418.22
2022-08-17T05:07:02.430Z,94415.72
2022-08-17T05:09:29.333Z,94412.75
2022-08-17T05:11:56.826Z,94414.09
2022-08-17T05:14:32.930Z,94415.53
2022-08-17T05:17:01.405Z,94416.66
2022-08-17T05:19:28.928Z,94416.66
2022-08-17T05:21:56.107Z,94424.53
2022-08-17T05:24:38.713Z,94420.34
2022-08-17T05:27:10.572Z,94431.00
2022-08-17T05:29:45.862Z,94422.22
2022-08-17T05:32:38.145Z,94429.72
2022-08-17T05:35:01.196Z,94429.09
2022-08-17T05:37:28.110Z,94433.06
2022-08-17T05:39:55.191Z,94434.31
2022-08-17T05:42:22.448Z,94430.88
2022-08-17T05:44:49.313Z,94430.13
2022-08-17T05:47:16.637Z,94434.91
2022-08-17T05:49:43.492Z,94427.94
2022-08-17T05:52:24.089Z,94424.00
2022-08-17T05:55:06.367Z,94420.94
2022-08-17T05:57:43.527Z,94422.63
2022-08-17T06:00:42.012Z,94428.31
2022-08-17T06:03:27.794Z,94426.16
2022-08-17T06:06:02.018Z,94426.25
2022-08-17T06:08:48.363Z,94428.38
2022-08-17T06:11:44.581Z,94423.72
2022-08-17T06:14:34.525Z,94420.97
2022-08-17T06:17:04.646Z,94428.09
2022-08-17T06:20:10.362Z,94420.31
2022-08-17T06:22:41.260Z,94430.16
2022-08-17T06:25:34.395Z,94424.66
2022-08-17T06:28:19.302Z,94425.91
2022-08-17T06:31:00.154Z,94436.59
2022-08-17T06:33:34.565Z,94428.38
2022-08-17T06:36:09.481Z,94429.22
2022-08-17T06:38:46.183Z,94421.44
2022-08-17T06:41:19.533Z,94423.03
2022-08-17T06:43:54.946Z,94418.41
2022-08-17T06:46:47.245Z,94417.69
2022-08-17T06:49:43.325Z,94413.84
2022-08-17T06:52:45.415Z,94419.44
2022-08-17T06:55:26.725Z,94409.69
2022-08-17T06:57:56.312Z,94416.03
2022-08-17T07:00:25.119Z,94417.28
2022-08-17T07:02:58.099Z,94424.75
2022-08-17T07:05:31.173Z,94419.69
2022-08-17T07:08:20.089Z,94420.50
2022-08-17T07:10:54.341Z,94420.13
2022-08-17T07:13:30.372Z,94415.81
2022-08-17T07:16:08.274Z,94422.91
2022-08-17T07:18:35.236Z,94425.25
2022-08-17T07:21:11.096Z,94426.03
2022-08-17T07:23:49.059Z,94424.44
2022-08-17T07:26:16.038Z,94425.28
2022-08-17T07:28:43.539Z,94429.97
2022-08-17T07:31:13.577Z,94425.28
2022-08-17T07:33:41.403Z,94424.84
2022-08-17T07:36:29.183Z,94416.97
2022-08-17T07:38:58.256Z,94423.25
2022-08-17T07:41:25.310Z,94424.41
2022-08-17T07:44:16.243Z,94422.84
2022-08-17T07:47:11.482Z,94421.63
2022-08-17T07:49:40.803Z,94421.19
2022-08-17T07:52:47.795Z,94417.69
2022-08-17T07:55:01.225Z,94421.91
2022-08-17T07:57:34.606Z,94424.19
2022-08-17T08:00:12.792Z,94422.63
2022-08-17T08:02:45.574Z,94415.53
2022-08-17T08:05:49.508Z,94425.22
2022-08-17T08:08:28.319Z,94418.50
2022-08-17T08:11:00.215Z,94415.28
2022-08-17T08:13:31.106Z,94416.09
2022-08-17T08:16:15.308Z,94413.31
2022-08-17T08:18:54.236Z,94408.06
2022-08-17T08:21:46.500Z,94403.63
2022-08-17T08:24:42.896Z,94414.19
2022-08-17T08:27:33.093Z,94398.31
2022-08-17T08:30:06.611Z,94389.81
2022-08-17T08:32:57.679Z,94391.69
2022-08-17T08:35:31.610Z,94391.97
2022-08-17T08:38:23.871Z,94395.38
2022-08-17T08:41:06.133Z,94389.66
2022-08-17T08:43:53.199Z,94402.00
2022-08-17T08:46:29.654Z,94387.78
2022-08-17T08:49:19.592Z,94396.44
2022-08-17T08:51:52.924Z,94391.38
2022-08-17T08:54:42.852Z,94390.25
2022-08-17T08:57:32.722Z,94391.00
2022-08-17T09:00:34.861Z,94386.81
2022-08-17T09:03:50.911Z,94403.22
2022-08-17T09:06:49.020Z,94391.44
2022-08-17T09:09:41.969Z,94382.69
2022-08-17T09:12:13.936Z,94386.63
2022-08-17T09:14:46.951Z,94391.28
2022-08-17T09:17:18.379Z,94393.97
2022-08-17T09:20:06.382Z,94378.66
2022-08-17T09:22:37.891Z,94389.94
2022-08-17T09:25:16.305Z,94390.94
2022-08-17T09:27:50.771Z,94387.47
2022-08-17T09:30:18.837Z,94403.53
2022-08-17T09:32:50.143Z,94390.63
2022-08-17T09:35:20.620Z,94390.03
2022-08-17T09:38:00.456Z,94380.75
2022-08-17T09:40:31.300Z,94379.97
2022-08-17T09:43:04.512Z,94381.09
2022-08-17T09:46:00.339Z,94376.16
2022-08-17T09:48:39.506Z,94376.69
2022-08-17T09:51:30.415Z,94394.13
2022-08-17T09:54:09.692Z,94384.94
2022-08-17T09:57:05.983Z,94377.59
2022-08-17T09:59:55.735Z,94381.38
2022-08-17T10:02:53.585Z,94376.34
2022-08-17T10:05:40.834Z,94381.59
2022-08-17T10:08:23.204Z,94377.31
2022-08-17T10:11:06.274Z,94378.34
2022-08-17T10:13:53.450Z,94374.19
2022-08-17T10:16:42.448Z,94380.56
2022-08-17T10:19:48.209Z,94362.34
2022-08-17T10:22:51.168Z,94368.53
2022-08-17T10:25:54.007Z,94372.72
2022-08-17T10:28:28.902Z,94373.78
2022-08-17T10:31:23.221Z,94366.91
2022-08-17T10:34:05.719Z,94353.72
2022-08-17T10:36:39.643Z,94354.03
2022-08-17T10:39:12.734Z,94360.59
2022-08-17T10:41:42.209Z,94345.31
2022-08-17T10:44:36.935Z,94357.78
2022-08-17T10:47:06.006Z,94349.16
2022-08-17T10:49:34.240Z,94346.56
2022-08-17T10:52:03.877Z,94342.56
2022-08-17T10:54:35.510Z,94364.56
2022-08-17T10:57:02.751Z,94340.25
2022-08-17T10:59:56.275Z,94350.25
2022-08-17T11:02:26.224Z,94353.47
2022-08-17T11:05:28.758Z,94341.97
2022-08-17T11:08:07.143Z,94352.88
2022-08-17T11:11:06.843Z,94348.19
2022-08-17T11:13:46.870Z,94343.16
2022-08-17T11:16:49.324Z,94340.84
2022-08-17T11:19:48.263Z,94349.41
2022-08-17T11:22:34.245Z,94344.16
2022-08-17T11:25:21.002Z,94337.66
2022-08-17T11:27:53.978Z,94348.53
2022-08-17T11:30:48.640Z,94345.63
2022-08-17T11:33:41.679Z,94346.72
2022-08-17T11:36:29.595Z,94345.22
2022-08-17T11:39:05.625Z,94329.94
2022-08-17T11:42:01.618Z,94346.78
2022-08-17T11:44:50.615Z,94351.25
2022-08-17T11:47:56.993Z,94347.66
2022-08-17T11:51:02.044Z,94354.94
2022-08-17T11:54:21.437Z,94353.44
2022-08-17T11:56:51.498Z,94347.00
2022-08-17T11:59:50.987Z,94343.75
2022-08-17T12:02:32.584Z,94355.72
2022-08-17T12:05:32.562Z,94364.13
2022-08-17T12:08:07.963Z,94361.34
2022-08-17T12:10:36.428Z,94359.28
2022-08-17T12:13:07.386Z,94358.63
2022-08-17T12:15:41.409Z,94369.91
2022-08-17T12:18:09.131Z,94362.97
2022-08-17T12:20:38.730Z,94352.97
2022-08-17T12:23:28.870Z,94352.19
2022-08-17T12:25:59.561Z,94354.16
2022-08-17T12:28:30.538Z,94345.84
2022-08-17T12:31:09.538Z,94344.16
2022-08-17T12:33:37.007Z,94340.00
2022-08-17T12:36:05.824Z,94339.72
2022-08-17T12:38:35.135Z,94323.88
2022-08-17T12:41:21.750Z,94340.66
2022-08-17T12:44:24.218Z,94347.03
2022-08-17T12:47:22.591Z,94351.53
2022-08-17T12:49:53.957Z,94334.13
2022-08-17T12:52:28.321Z,94345.38
2022-08-17T12:55:02.984Z,94337.44
2022-08-17T12:57:33.615Z,94340.84
2022-08-17T13:00:01.960Z,94331.78
2022-08-17T13:02:30.821Z,94333.91
2022-08-17T13:04:59.149Z,94323.31
2022-08-17T13:07:27.415Z,94326.13
2022-08-17T13:09:54.337Z,94321.63
2022-08-17T13:12:28.241Z,94320.09
2022-08-17T13:14:57.534Z,94316.59
2022-08-17T13:17:28.979Z,94318.34
2022-08-17T13:19:55.816Z,94311.09
2022-08-17T13:22:23.882Z,94319.72
2022-08-17T13:24:58.561Z,94315.53
2022-08-17T13:27:26.929Z,94312.94
2022-08-17T13:29:57.347Z,94315.75
2022-08-17T13:32:43.849Z,94318.53
2022-08-17T13:35:39.604Z,94316.59
2022-08-17T13:38:17.430Z,94313.28
2022-08-17T13:40:46.350Z,94309.13
2022-08-17T13:43:33.108Z,94301.47
2022-08-17T13:46:07.750Z,94297.69
2022-08-17T13:48:34.625Z,94302.94
2022-08-17T13:51:10.402Z,94293.63
2022-08-17T13:53:57.824Z,94292.56
2022-08-17T13:56:33.548Z,94283.53
2022-08-17T13:59:53.520Z,94281.50
2022-08-17T14:02:21.139Z,94284.75
2022-08-17T14:04:48.449Z,94282.72
2022-08-17T14:07:27.535Z,94289.97
2022-08-17T14:09:57.505Z,94275.63
2022-08-17T14:12:26.529Z,94288.69
2022-08-17T14:14:55.210Z,94286.94
2022-08-17T14:17:23.110Z,94287.03
2022-08-17T14:19:51.149Z,94285.69
2022-08-17T14:22:38.266Z,94282.97
2022-08-17T14:25:05.974Z,94289.69
2022-08-17T14:27:52.351Z,94282.97
2022-08-17T14:30:29.093Z,94282.50
2022-08-17T14:32:58.231Z,94282.94
2022-08-17T14:35:25.301Z,94280.47
2022-08-17T14:37:52.572Z,94271.72
2022-08-17T14:40:20.993Z,94278.78
2022-08-17T14:42:48.284Z,94278.53
2022-08-17T14:45:30.250Z,94281.72
2022-08-17T14:48:00.321Z,94280.72
2022-08-17T14:50:27.314Z,94284.72
2022-08-17T14:52:58.071Z,94280.44
2022-08-17T14:55:25.265Z,94286.34
2022-08-17T14:57:52.465Z,94286.88
2022-08-17T15:00:19.483Z,94285.63
2022-08-17T15:02:54.049Z,94285.34
2022-08-17T15:05:22.269Z,94290.69
2022-08-17T15:07:49.325Z,94286.28
2022-08-17T15:10:16.596Z,94289.22
2022-08-17T15:12:43.932Z,94293.78
2022-08-17T15:15:11.808Z,94284.91
2022-08-17T15:17:44.718Z,94290.19
2022-08-17T15:20:26.565Z,94293.56
2022-08-17T15:22:57.563Z,94287.88
2022-08-17T15:25:28.209Z,94295.25
2022-08-17T15:27:56.075Z,94290.56
2022-08-17T15:30:23.895Z,94293.31
2022-08-17T15:32:54.957Z,94295.47
2022-08-17T15:35:28.060Z,94293.59
2022-08-17T15:37:56.196Z,94286.63
2022-08-17T15:40:23.051Z,94290.81
2022-08-17T15:42:51.271Z,94286.91
2022-08-17T15:45:21.478Z,94289.78
2022-08-17T15:47:48.320Z,94287.06
2022-08-17T15:50:15.204Z,94296.19
2022-08-17T15:52:45.202Z,94289.91
2022-08-17T15:55:14.163Z,94287.59
2022-08-17T15:57:41.177Z,94290.81
2022-08-17T16:00:08.717Z,94290.53
2022-08-17T16:03:46.148Z,94289.25
2022-08-17T16:05:31.409Z,94298.41
2022-08-17T16:07:59.906Z,94296.34
2022-08-17T16:10:35.303Z,94300.47
2022-08-17T16:13:03.704Z,94312.19
2022-08-17T16:15:33.519Z,94300.13
2022-08-17T16:18:00.431Z,94293.75
2022-08-17T16:20:27.472Z,94296.13
2022-08-17T16:22:54.998Z,94301.34
2022-08-17T16:25:38.895Z,94307.88
2022-08-17T16:28:18.099Z,94299.19
2022-08-17T16:30:45.594Z,94292.81
2022-08-17T16:33:12.906Z,94299.19
2022-08-17T16:35:40.074Z,94301.78
2022-08-17T16:38:07.246Z,94291.97
2022-08-17T16:40:35.789Z,94307.63
2022-08-17T16:43:03.747Z,94307.50
2022-08-17T16:45:36.656Z,94304.63
2022-08-17T16:48:04.073Z,94303.41
2022-08-17T16:50:32.194Z,94307.22
2022-08-17T16:53:18.082Z,94311.75
2022-08-17T16:55:45.973Z,94310.66
2022-08-17T16:58:13.233Z,94309.06
2022-08-17T17:00:42.274Z,94312.91
2022-08-17T17:03:19.982Z,94309.63
2022-08-17T17:06:13.787Z,94315.03
2022-08-17T17:08:46.780Z,94313.63
2022-08-17T17:11:21.647Z,94327.28
2022-08-17T17:13:58.004Z,94326.94
2022-08-17T17:16:46.301Z,94329.84
2022-08-17T17:19:27.702Z,94328.63
2022-08-17T17:22:11.844Z,94323.69
2022-08-17T17:24:57.513Z,94321.47
2022-08-17T17:27:42.968Z,94323.22
2022-08-17T17:30:13.778Z,94337.59
2022-08-17T17:32:44.385Z,94340.44
2022-08-17T17:35:16.505Z,94349.16
2022-08-17T17:37:45.010Z,94349.06
2022-08-17T17:40:23.207Z,94350.47
2022-08-17T17:42:55.215Z,94352.03
2022-08-17T17:45:37.847Z,94355.09
2022-08-17T17:48:04.726Z,94349.25
2022-08-17T17:50:43.309Z,94357.78
2022-08-17T17:53:15.653Z,94355.69
2022-08-17T17:56:01.009Z,94361.22
2022-08-17T17:58:33.503Z,94363.78
2022-08-17T18:01:20.566Z,94371.59
2022-08-17T18:04:08.341Z,94371.38
2022-08-17T18:07:11.169Z,94374.03
2022-08-17T18:10:02.673Z,94380.31
2022-08-17T18:12:49.795Z,94383.19
2022-08-17T18:15:36.906Z,94382.53
2022-08-17T18:18:38.448Z,94379.94
2022-08-17T18:21:07.373Z,94378.94
2022-08-17T18:23:34.225Z,94384.53
2022-08-17T18:26:02.144Z,94390.53
2022-08-17T18:28:41.221Z,94384.72
2022-08-17T18:31:18.700Z,94389.28
2022-08-17T18:33:47.454Z,94395.69
2022-08-17T18:36:25.929Z,94394.63
2022-08-17T18:39:08.761Z,94402.94
2022-08-17T18:41:40.422Z,94413.56
2022-08-17T18:44:19.505Z,94418.75
2022-08-17T18:46:46.391Z,94423.59
2022-08-17T18:49:39.367Z,94416.19
2022-08-17T18:52:21.253Z,94421.75
2022-08-17T18:55:14.413Z,94424.50
2022-08-17T18:57:48.949Z,94415.44
2022-08-17T19:00:35.663Z,94427.69
2022-08-17T19:03:05.631Z,94423.38
2022-08-17T19:05:41.409Z,94428.13
2022-08-17T19:08:31.173Z,94422.69
2022-08-17T19:11:30.351Z,94428.22
2022-08-17T19:14:06.350Z,94436.16
2022-08-17T19:16:52.058Z,94435.38
2022-08-17T19:19:23.581Z,94436.16
2022-08-17T19:21:53.481Z,94433.41
2022-08-17T19:24:24.969Z,94432.25
2022-08-17T19:27:06.855Z,94429.88
2022-08-17T19:30:09.207Z,94431.88
2022-08-17T19:32:37.536Z,94440.09
2022-08-17T19:35:06.102Z,94431.88
2022-08-17T19:37:39.349Z,94438.16
2022-08-17T19:40:50.625Z,94430.69
2022-08-17T19:43:33.770Z,94432.66
2022-08-17T19:46:12.159Z,94436.22
2022-08-17T19:49:05.311Z,94438.94
2022-08-17T19:51:54.963Z,94430.31
2022-08-17T19:54:56.733Z,94439.38
2022-08-17T19:57:32.016Z,94439.00
2022-08-17T20:00:02.341Z,94434.66
2022-08-17T20:02:49.512Z,94433.06
2022-08-17T20:05:20.021Z,94439.75
2022-08-17T20:07:55.519Z,94447.22
2022-08-17T20:10:55.215Z,94443.69
2022-08-17T20:13:33.302Z,94441.75
2022-08-17T20:16:01.059Z,94435.50
2022-08-17T20:18:32.151Z,94444.91
2022-08-17T20:21:10.834Z,94437.03
2022-08-17T20:23:57.018Z,94436.28
2022-08-17T20:26:27.513Z,94442.56
2022-08-17T20:29:37.736Z,94436.66
2022-08-17T20:32:14.777Z,94444.91
2022-08-17T20:34:45.173Z,94445.66
2022-08-17T20:37:29.844Z,94448.84
2022-08-17T20:40:16.872Z,94447.66
2022-08-17T20:42:43.770Z,94453.16
2022-08-17T20:45:42.936Z,94446.47
2022-08-17T20:48:36.196Z,94454.34
2022-08-17T20:51:18.262Z,94459.84
2022-08-17T20:54:08.493Z,94461.78
2022-08-17T20:56:48.828Z,94457.84
2022-08-17T20:59:41.993Z,94455.88
2022-08-17T21:02:19.341Z,94453.53
2022-08-17T21:05:00.332Z,94454.72
2022-08-17T21:07:48.442Z,94442.53
2022-08-17T21:10:34.224Z,94447.22
2022-08-17T21:13:33.538Z,94444.47
2022-08-17T21:16:10.262Z,94449.19
2022-08-17T21:18:46.721Z,94441.34
2022-08-17T21:21:36.031Z,94449.59
2022-08-17T21:24:23.041Z,94450.34
2022-08-17T21:27:06.556Z,94452.31
2022-08-17T21:29:33.900Z,94450.34
2022-08-17T21:32:25.331Z,94457.00
2022-08-17T21:35:30.040Z,94457.00
2022-08-17T21:38:02.439Z,94460.16
2022-08-17T21:40:31.144Z,94466.44
2022-08-17T21:43:01.078Z,94472.31
2022-08-17T21:45:29.751Z,94477.81
2022-08-17T21:48:14.970Z,94478.59
2022-08-17T21:50:44.432Z,94468.41
2022-08-17T21:53:22.445Z,94473.88
2022-08-17T21:55:50.436Z,94474.69
2022-08-17T21:58:29.180Z,94478.22
2022-08-17T22:01:14.762Z,94477.03
2022-08-17T22:03:41.981Z,94477.81
2022-08-17T22:06:18.827Z,94483.69
2022-08-17T22:08:57.551Z,94480.91
2022-08-17T22:11:24.479Z,94475.78
2022-08-17T22:13:51.645Z,94473.81
2022-08-17T22:16:28.840Z,94476.09
2022-08-17T22:18:58.208Z,94469.03
2022-08-17T22:21:25.533Z,94471.41
2022-08-17T22:24:05.721Z,94452.63
2022-08-17T22:26:51.314Z,94468.72
2022-08-17T22:29:37.468Z,94465.56
2022-08-17T22:32:04.394Z,94467.53
2022-08-17T22:34:31.282Z,94474.59
2022-08-17T22:37:16.546Z,94471.78
2022-08-17T22:39:43.456Z,94468.25
2022-08-17T22:42:14.770Z,94469.38
2022-08-17T22:44:49.385Z,94470.13
2022-08-17T22:47:27.034Z,94465.81
2022-08-17T22:49:58.962Z,94469.34
2022-08-17T22:52:32.396Z,94465.81
2022-08-17T22:55:23.713Z,94461.03
2022-08-17T22:58:10.017Z,94460.63
2022-08-17T23:00:39.115Z,94461.00
2022-08-17T23:03:18.051Z,94457.84
2022-08-17T23:05:47.577Z,94458.56
2022-08-17T23:08:15.545Z,94458.16
2022-08-17T23:10:42.795Z,94460.88
2022-08-17T23:13:11.971Z,94464.78
2022-08-17T23:15:41.961Z,94460.00
2022-08-17T23:18:08.725Z,94459.19
2022-08-17T23:20:36.643Z,94461.50
2022-08-17T23:23:07.091Z,94450.53
2022-08-17T23:25:34.717Z,94448.97
2022-08-17T23:28:02.764Z,94452.09
2022-08-17T23:30:30.775Z,94453.22
2022-08-17T23:33:04.245Z,94454.78
2022-08-17T23:35:38.853Z,94455.56
2022-08-17T23:38:08.852Z,94449.28
2022-08-17T23:40:35.709Z,94459.47
2022-08-17T23:43:06.048Z,94448.88
2022-08-17T23:45:54.148Z,94454.31
2022-08-17T23:48:27.812Z,94455.09
2022-08-17T23:51:04.224Z,94460.94
2022-08-17T23:53:34.198Z,94451.16
2022-08-17T23:56:03.777Z,94450.69
2022-08-17T23:58:38.587Z,94453.44
